createdAt,value
2023-03-17T00:01:54.995Z,101360.34
2023-03-17T00:04:24.605Z,101367.66
2023-03-17T00:06:52.938Z,101356.44
2023-03-17T00:09:22.439Z,101360.19
2023-03-17T00:11:50.248Z,101365.72
2023-03-17T00:14:18.994Z,101355.47
2023-03-17T00:16:50.351Z,101361.53
2023-03-17T00:19:24.358Z,101363.75
2023-03-17T00:21:51.819Z,101360.09
2023-03-17T00:24:18.798Z,101355.47
2023-03-17T00:26:46.318Z,101347.63
2023-03-17T00:29:13.884Z,101347.66
2023-03-17T00:31:48.530Z,101352.28
2023-03-17T00:34:19.006Z,101355.94
2023-03-17T00:36:49.822Z,101369.84
2023-03-17T00:39:17.296Z,101349.38
2023-03-17T00:41:44.421Z,101360.97
2023-03-17T00:44:12.043Z,101365.72
2023-03-17T00:46:41.664Z,101372.53
2023-03-17T00:49:22.238Z,101363.28
2023-03-17T00:51:50.153Z,101370.47
2023-03-17T00:54:19.528Z,101373.78
2023-03-17T00:56:48.422Z,101367.16
2023-03-17T00:59:24.377Z,101363.03
2023-03-17T01:01:52.267Z,101364.47
2023-03-17T01:04:21.106Z,101362.28
2023-03-17T01:06:49.695Z,101358.38
2023-03-17T01:09:20.487Z,101357.41
2023-03-17T01:11:48.840Z,101355.00
2023-03-17T01:14:16.911Z,101353.03
2023-03-17T01:16:44.826Z,101360.09
2023-03-17T01:19:13.494Z,101356.44
2023-03-17T01:21:40.924Z,101354.03
2023-03-17T01:24:08.562Z,101349.63
2023-03-17T01:26:35.551Z,101347.19
2023-03-17T01:29:02.530Z,101347.03
2023-03-17T01:31:29.694Z,101354.88
2023-03-17T01:33:56.947Z,101358.38
2023-03-17T01:36:24.162Z,101353.53
2023-03-17T01:38:51.699Z,101352.06
2023-03-17T01:41:20.965Z,101339.63
2023-03-17T01:43:48.165Z,101338.16
2023-03-17T01:46:21.100Z,101338.38
2023-03-17T01:48:54.231Z,101338.84
2023-03-17T01:51:47.125Z,101329.69
2023-03-17T01:54:24.781Z,101329.56
2023-03-17T01:56:53.927Z,101321.13
2023-03-17T01:59:27.354Z,101334.31
2023-03-17T02:02:01.510Z,101329.31
2023-03-17T02:04:29.873Z,101326.13
2023-03-17T02:06:58.948Z,101323.09
2023-03-17T02:09:28.287Z,101331.03
2023-03-17T02:11:56.468Z,101328.34
2023-03-17T02:14:23.827Z,101327.34
2023-03-17T02:16:50.918Z,101327.59
2023-03-17T02:19:17.827Z,101326.63
2023-03-17T02:21:56.994Z,101325.66
2023-03-17T02:24:38.033Z,101316.38
2023-03-17T02:27:16.724Z,101324.69
2023-03-17T02:29:46.574Z,101315.88
2023-03-17T02:32:17.853Z,101321.50
2023-03-17T02:34:46.612Z,101315.50
2023-03-17T02:37:14.173Z,101307.59
2023-03-17T02:39:41.685Z,101306.63
2023-03-17T02:42:09.638Z,101318.31
2023-03-17T02:44:36.656Z,101299.75
2023-03-17T02:47:03.635Z,101302.44
2023-03-17T02:49:31.853Z,101309.78
2023-03-17T02:51:58.794Z,101304.63
2023-03-17T02:54:26.663Z,101308.53
2023-03-17T02:56:53.590Z,101299.63
2023-03-17T02:59:20.823Z,101305.34
2023-03-17T03:01:48.699Z,101295.38
2023-03-17T03:04:15.626Z,101298.28
2023-03-17T03:06:44.805Z,101291.22
2023-03-17T03:09:12.005Z,101300.69
2023-03-17T03:11:39.720Z,101293.41
2023-03-17T03:14:08.251Z,101284.59
2023-03-17T03:16:35.199Z,101278.28
2023-03-17T03:19:02.342Z,101284.59
2023-03-17T03:21:29.362Z,101280.22
2023-03-17T03:23:56.331Z,101278.19
2023-03-17T03:26:23.317Z,101271.72
2023-03-17T03:28:50.740Z,101276.84
2023-03-17T03:31:17.773Z,101273.19
2023-03-17T03:33:44.889Z,101267.97
2023-03-17T03:36:12.121Z,101266.97
2023-03-17T03:38:39.401Z,101258.81
2023-03-17T03:41:06.455Z,101267.59
2023-03-17T03:43:33.352Z,101276.34
2023-03-17T03:46:00.860Z,101274.19
2023-03-17T03:48:28.214Z,101285.75
2023-03-17T03:50:59.172Z,101280.03
2023-03-17T03:53:26.636Z,101285.28
2023-03-17T03:55:54.190Z,101285.19
2023-03-17T03:58:21.793Z,101286.75
2023-03-17T04:00:48.734Z,101283.97
2023-03-17T04:03:16.141Z,101283.31
2023-03-17T04:05:43.348Z,101280.53
2023-03-17T04:08:11.447Z,101284.94
2023-03-17T04:10:38.377Z,101282.00
2023-03-17T04:13:05.612Z,101276.63
2023-03-17T04:15:32.518Z,101275.06
2023-03-17T04:17:59.396Z,101269.69
2023-03-17T04:20:26.367Z,101277.84
2023-03-17T04:22:53.602Z,101279.06
2023-03-17T04:25:20.538Z,101276.63
2023-03-17T04:27:47.568Z,101277.81
2023-03-17T04:30:14.903Z,101282.34
2023-03-17T04:32:42.080Z,101290.72
2023-03-17T04:35:14.196Z,101276.59
2023-03-17T04:37:41.677Z,101293.91
2023-03-17T04:40:10.156Z,101298.75
2023-03-17T04:42:37.980Z,101305.44
2023-03-17T04:45:06.508Z,101291.63
2023-03-17T04:47:33.871Z,101293.72
2023-03-17T04:50:01.649Z,101296.50
2023-03-17T04:52:28.790Z,101298.47
2023-03-17T04:54:55.945Z,101295.25
2023-03-17T04:57:24.596Z,101296.22
2023-03-17T04:59:51.810Z,101294.88
2023-03-17T05:02:19.126Z,101283.78
2023-03-17T05:04:46.891Z,101293.50
2023-03-17T05:07:14.261Z,101293.75
2023-03-17T05:09:42.071Z,101290.44
2023-03-17T05:12:10.053Z,101288.63
2023-03-17T05:14:37.830Z,101295.16
2023-03-17T05:17:04.875Z,101287.88
2023-03-17T05:19:32.113Z,101302.88
2023-03-17T05:21:59.063Z,101299.94
2023-03-17T05:24:26.138Z,101296.16
2023-03-17T05:26:53.033Z,101300.06
2023-03-17T05:29:20.198Z,101291.56
2023-03-17T05:31:47.580Z,101295.56
2023-03-17T05:34:16.066Z,101296.94
2023-03-17T05:36:43.713Z,101288.66
2023-03-17T05:39:11.232Z,101297.44
2023-03-17T05:41:39.202Z,101290.88
2023-03-17T05:44:06.659Z,101297.94
2023-03-17T05:46:33.602Z,101292.47
2023-03-17T05:49:00.891Z,101290.53
2023-03-17T05:51:27.804Z,101287.75
2023-03-17T05:53:55.636Z,101289.97
2023-03-17T05:56:22.933Z,101289.81
2023-03-17T05:58:49.830Z,101284.34
2023-03-17T06:01:16.857Z,101283.16
2023-03-17T06:03:43.791Z,101288.75
2023-03-17T06:06:10.950Z,101288.75
2023-03-17T06:08:37.904Z,101291.78
2023-03-17T06:11:04.896Z,101291.44
2023-03-17T06:13:31.800Z,101289.25
2023-03-17T06:15:58.737Z,101287.31
2023-03-17T06:18:25.897Z,101295.13
2023-03-17T06:20:53.049Z,101289.41
2023-03-17T06:23:20.154Z,101283.81
2023-03-17T06:25:47.806Z,101285.88
2023-03-17T06:28:14.798Z,101292.22
2023-03-17T06:30:41.722Z,101291.97
2023-03-17T06:33:08.931Z,101287.09
2023-03-17T06:35:36.185Z,101285.91
2023-03-17T06:38:03.662Z,101295.03
2023-03-17T06:40:30.739Z,101285.66
2023-03-17T06:42:57.802Z,101284.69
2023-03-17T06:45:24.715Z,101289.34
2023-03-17T06:47:51.631Z,101301.16
2023-03-17T06:50:18.684Z,101293.47
2023-03-17T06:52:46.892Z,101305.16
2023-03-17T06:55:14.120Z,101300.31
2023-03-17T06:57:41.094Z,101304.50
2023-03-17T07:00:10.148Z,101307.91
2023-03-17T07:02:37.309Z,101304.97
2023-03-17T07:05:04.709Z,101312.78
2023-03-17T07:07:31.804Z,101313.88
2023-03-17T07:09:58.823Z,101308.41
2023-03-17T07:12:26.132Z,101306.94
2023-03-17T07:14:53.080Z,101313.03
2023-03-17T07:17:20.416Z,101316.69
2023-03-17T07:19:47.317Z,101327.16
2023-03-17T07:22:14.437Z,101332.31
2023-03-17T07:24:44.918Z,101334.84
2023-03-17T07:27:11.839Z,101335.69
2023-03-17T07:30:05.282Z,101337.91
2023-03-17T07:32:33.089Z,101345.94
2023-03-17T07:35:00.324Z,101340.97
2023-03-17T07:37:27.436Z,101350.34
2023-03-17T07:39:54.386Z,101347.41
2023-03-17T07:42:21.893Z,101349.00
2023-03-17T07:44:49.064Z,101349.59
2023-03-17T07:47:16.067Z,101346.22
2023-03-17T07:49:43.231Z,101347.41
2023-03-17T07:52:11.533Z,101356.69
2023-03-17T07:54:42.271Z,101358.41
2023-03-17T07:57:10.282Z,101343.59
2023-03-17T07:59:38.361Z,101349.50
2023-03-17T08:02:05.761Z,101353.84
2023-03-17T08:04:32.822Z,101340.31
2023-03-17T08:06:59.718Z,101341.94
2023-03-17T08:09:27.233Z,101352.56
2023-03-17T08:11:54.128Z,101363.50
2023-03-17T08:14:21.363Z,101361.34
2023-03-17T08:16:48.385Z,101367.31
2023-03-17T08:19:15.368Z,101361.78
2023-03-17T08:21:43.018Z,101364.50
2023-03-17T08:24:09.994Z,101368.78
2023-03-17T08:26:37.793Z,101359.59
2023-03-17T08:29:08.242Z,101355.56
2023-03-17T08:31:35.989Z,101365.66
2023-03-17T08:34:03.401Z,101369.09
2023-03-17T08:36:30.811Z,101358.56
2023-03-17T08:38:58.125Z,101363.50
2023-03-17T08:41:27.590Z,101352.06
2023-03-17T08:43:55.547Z,101360.03
2023-03-17T08:46:28.413Z,101369.63
2023-03-17T08:48:57.020Z,101367.63
2023-03-17T08:51:26.854Z,101361.66
2023-03-17T08:53:55.073Z,101360.28
2023-03-17T08:56:22.842Z,101367.28
2023-03-17T08:58:50.992Z,101357.88
2023-03-17T09:01:21.044Z,101368.06
2023-03-17T09:03:48.029Z,101360.03
2023-03-17T09:06:15.786Z,101360.13
2023-03-17T09:08:45.319Z,101359.09
2023-03-17T09:11:14.940Z,101358.16
2023-03-17T09:13:42.186Z,101360.72
2023-03-17T09:16:10.097Z,101372.09
2023-03-17T09:18:37.108Z,101363.91
2023-03-17T09:21:04.212Z,101363.25
2023-03-17T09:23:31.604Z,101373.00
2023-03-17T09:25:58.641Z,101370.75
2023-03-17T09:28:25.586Z,101366.81
2023-03-17T09:30:53.043Z,101380.56
2023-03-17T09:33:20.078Z,101378.34
2023-03-17T09:35:47.063Z,101379.47
2023-03-17T09:38:13.971Z,101377.34
2023-03-17T09:41:06.169Z,101371.63
2023-03-17T09:43:47.542Z,101392.97
2023-03-17T09:46:50.726Z,101387.75
2023-03-17T09:49:21.059Z,101385.41
2023-03-17T09:51:49.627Z,101390.00
2023-03-17T09:54:38.327Z,101384.75
2023-03-17T09:57:11.989Z,101379.09
2023-03-17T10:00:01.523Z,101377.56
2023-03-17T10:02:33.654Z,101377.28
2023-03-17T10:05:12.769Z,101387.97
2023-03-17T10:07:49.623Z,101383.16
2023-03-17T10:10:35.575Z,101386.13
2023-03-17T10:13:16.521Z,101390.66
2023-03-17T10:15:53.182Z,101390.75
2023-03-17T10:18:25.361Z,101384.69
2023-03-17T10:21:06.523Z,101384.38
2023-03-17T10:23:35.845Z,101388.25
2023-03-17T10:26:08.365Z,101394.13
2023-03-17T10:28:38.860Z,101388.25
2023-03-17T10:31:16.843Z,101392.88
2023-03-17T10:33:47.076Z,101377.75
2023-03-17T10:36:17.723Z,101390.00
2023-03-17T10:38:54.311Z,101377.25
2023-03-17T10:41:24.898Z,101376.44
2023-03-17T10:43:52.055Z,101374.28
2023-03-17T10:46:22.446Z,101375.44
2023-03-17T10:48:53.341Z,101374.44
2023-03-17T10:51:32.911Z,101374.16
2023-03-17T10:54:11.124Z,101381.22
2023-03-17T10:56:42.353Z,101368.31
2023-03-17T10:59:17.458Z,101377.22
2023-03-17T11:01:50.193Z,101378.47
2023-03-17T11:04:28.685Z,101374.38
2023-03-17T11:06:58.518Z,101374.75
2023-03-17T11:09:28.169Z,101379.94
2023-03-17T11:12:21.430Z,101376.59
2023-03-17T11:14:49.427Z,101373.31
2023-03-17T11:17:21.248Z,101368.44
2023-03-17T11:20:04.564Z,101376.63
2023-03-17T11:22:34.164Z,101381.53
2023-03-17T11:25:04.527Z,101382.91
2023-03-17T11:27:35.646Z,101384.56
2023-03-17T11:30:14.261Z,101377.78
2023-03-17T11:32:58.180Z,101383.97
2023-03-17T11:35:53.271Z,101381.81
2023-03-17T11:38:24.776Z,101377.75
2023-03-17T11:41:13.990Z,101370.34
2023-03-17T11:44:13.802Z,101365.22
2023-03-17T11:47:14.300Z,101373.59
2023-03-17T11:49:44.754Z,101389.81
2023-03-17T11:52:28.625Z,101385.63
2023-03-17T11:55:24.712Z,101381.84
2023-03-17T11:58:05.747Z,101374.41
2023-03-17T12:00:37.524Z,101370.19
2023-03-17T12:03:19.583Z,101359.56
2023-03-17T12:05:52.056Z,101349.97
2023-03-17T12:08:54.323Z,101336.47
2023-03-17T12:11:28.200Z,101345.31
2023-03-17T12:14:08.157Z,101344.06
2023-03-17T12:16:57.898Z,101329.63
2023-03-17T12:19:28.432Z,101338.53
2023-03-17T12:22:01.361Z,101331.91
2023-03-17T12:25:00.658Z,101329.78
2023-03-17T12:27:32.729Z,101313.47
2023-03-17T12:30:05.593Z,101312.91
2023-03-17T12:33:10.967Z,101322.00
2023-03-17T12:35:41.099Z,101303.63
2023-03-17T12:38:25.707Z,101285.75
2023-03-17T12:41:29.954Z,101300.38
2023-03-17T12:44:10.115Z,101280.47
2023-03-17T12:46:46.103Z,101273.22
2023-03-17T12:49:19.066Z,101266.47
2023-03-17T12:51:55.007Z,101276.44
2023-03-17T12:54:27.583Z,101282.09
2023-03-17T12:57:02.944Z,101277.00
2023-03-17T12:59:31.391Z,101287.47
2023-03-17T13:02:15.732Z,101285.66
2023-03-17T13:04:58.145Z,101278.56
2023-03-17T13:08:11.086Z,101263.03
2023-03-17T13:10:48.761Z,101270.22
2023-03-17T13:13:23.554Z,101270.78
2023-03-17T13:15:58.296Z,101266.84
2023-03-17T13:18:47.352Z,101271.53
2023-03-17T13:21:18.836Z,101256.59
2023-03-17T13:24:19.202Z,101235.28
2023-03-17T13:26:56.469Z,101233.38
2023-03-17T13:29:46.430Z,101220.00
2023-03-17T13:32:34.355Z,101208.47
2023-03-17T13:35:01.810Z,101220.88
2023-03-17T13:37:33.711Z,101199.25
2023-03-17T13:40:07.965Z,101201.19
2023-03-17T13:42:48.375Z,101187.41
2023-03-17T13:45:32.305Z,101171.22
2023-03-17T13:48:27.495Z,101174.19
2023-03-17T13:51:09.661Z,101166.91
2023-03-17T13:53:41.630Z,101174.72
2023-03-17T13:56:26.870Z,101198.47
2023-03-17T13:59:02.476Z,101187.38
2023-03-17T14:01:37.686Z,101203.81
2023-03-17T14:04:15.361Z,101192.00
2023-03-17T14:06:42.647Z,101207.28
2023-03-17T14:09:28.389Z,101209.66
2023-03-17T14:12:00.135Z,101201.31
2023-03-17T14:14:33.560Z,101222.72
2023-03-17T14:17:36.078Z,101221.63
2023-03-17T14:20:08.741Z,101213.59
2023-03-17T14:22:47.896Z,101216.78
2023-03-17T14:25:20.685Z,101222.94
2023-03-17T14:27:57.108Z,101230.41
2023-03-17T14:30:29.772Z,101225.50
2023-03-17T14:32:59.721Z,101218.41
2023-03-17T14:35:31.425Z,101211.78
2023-03-17T14:37:59.660Z,101211.94
2023-03-17T14:40:30.348Z,101216.44
2023-03-17T14:42:57.534Z,101205.69
2023-03-17T14:45:30.030Z,101209.28
2023-03-17T14:47:57.266Z,101216.47
2023-03-17T14:50:33.056Z,101218.72
2023-03-17T14:53:01.061Z,101220.44
2023-03-17T14:55:38.407Z,101199.25
2023-03-17T14:58:31.394Z,101197.53
2023-03-17T15:01:15.664Z,101192.03
2023-03-17T15:03:56.543Z,101185.66
2023-03-17T15:06:24.991Z,101185.97
2023-03-17T15:08:52.785Z,101191.66
2023-03-17T15:11:26.238Z,101183.44
2023-03-17T15:14:03.602Z,101204.06
2023-03-17T15:16:35.012Z,101206.81
2023-03-17T15:19:09.256Z,101193.41
2023-03-17T15:21:40.942Z,101180.75
2023-03-17T15:24:35.159Z,101185.41
2023-03-17T15:27:18.349Z,101176.28
2023-03-17T15:29:47.527Z,101167.09
2023-03-17T15:32:20.447Z,101172.81
2023-03-17T15:34:48.365Z,101166.56
2023-03-17T15:37:16.853Z,101179.25
2023-03-17T15:39:44.087Z,101172.22
2023-03-17T15:42:11.161Z,101173.06
2023-03-17T15:44:38.110Z,101169.28
2023-03-17T15:47:05.528Z,101164.38
2023-03-17T15:49:32.450Z,101158.56
2023-03-17T15:51:59.323Z,101166.50
2023-03-17T15:54:26.296Z,101167.63
2023-03-17T15:56:53.156Z,101166.31
2023-03-17T15:59:20.107Z,101175.88
2023-03-17T16:01:47.204Z,101164.19
2023-03-17T16:04:14.391Z,101173.00
2023-03-17T16:06:41.984Z,101159.81
2023-03-17T16:09:15.617Z,101143.88
2023-03-17T16:11:42.671Z,101156.47
2023-03-17T16:14:10.733Z,101162.06
2023-03-17T16:16:41.519Z,101149.50
2023-03-17T16:19:15.014Z,101149.59
2023-03-17T16:21:42.640Z,101138.53
2023-03-17T16:24:18.023Z,101148.41
2023-03-17T16:26:45.031Z,101146.47
2023-03-17T16:29:16.301Z,101146.72
2023-03-17T16:31:46.784Z,101148.41
2023-03-17T16:34:19.912Z,101149.38
2023-03-17T16:36:48.596Z,101141.59
2023-03-17T16:39:22.525Z,101146.28
2023-03-17T16:41:50.791Z,101159.41
2023-03-17T16:44:21.094Z,101149.72
2023-03-17T16:46:48.605Z,101151.22
2023-03-17T16:49:17.725Z,101149.34
2023-03-17T16:51:45.119Z,101154.59
2023-03-17T16:54:12.872Z,101170.06
2023-03-17T16:56:41.367Z,101162.97
2023-03-17T16:59:16.182Z,101165.72
2023-03-17T17:01:43.198Z,101171.84
2023-03-17T17:04:11.314Z,101162.41
2023-03-17T17:06:38.417Z,101164.16
2023-03-17T17:09:05.426Z,101156.47
2023-03-17T17:11:32.504Z,101174.75
2023-03-17T17:13:59.957Z,101172.31
2023-03-17T17:16:33.244Z,101163.63
2023-03-17T17:19:01.345Z,101166.97
2023-03-17T17:21:28.808Z,101163.50
2023-03-17T17:23:56.015Z,101171.81
2023-03-17T17:26:23.456Z,101163.53
2023-03-17T17:28:50.531Z,101160.63
2023-03-17T17:31:17.587Z,101169.16
2023-03-17T17:33:44.585Z,101168.41
2023-03-17T17:36:16.951Z,101175.00
2023-03-17T17:38:44.577Z,101173.28
2023-03-17T17:41:12.604Z,101180.09
2023-03-17T17:43:40.389Z,101175.88
2023-03-17T17:46:18.544Z,101167.22
2023-03-17T17:48:46.150Z,101167.69
2023-03-17T17:51:13.231Z,101174.50
2023-03-17T17:53:40.457Z,101173.28
2023-03-17T17:56:08.486Z,101174.28
2023-03-17T17:58:35.518Z,101165.50
2023-03-17T18:01:04.827Z,101161.09
2023-03-17T18:03:32.268Z,101170.13
2023-03-17T18:05:59.538Z,101155.53
2023-03-17T18:08:27.174Z,101163.44
2023-03-17T18:10:55.815Z,101161.13
2023-03-17T18:13:23.627Z,101161.22
2023-03-17T18:15:51.032Z,101161.13
2023-03-17T18:18:18.246Z,101163.78
2023-03-17T18:20:45.181Z,101159.16
2023-03-17T18:23:12.335Z,101166.69
2023-03-17T18:25:39.339Z,101167.66
2023-03-17T18:28:06.418Z,101161.13
2023-03-17T18:30:35.310Z,101155.75
2023-03-17T18:33:09.926Z,101157.69
2023-03-17T18:35:37.861Z,101155.50
2023-03-17T18:38:04.934Z,101159.03
2023-03-17T18:40:31.952Z,101155.63
2023-03-17T18:42:58.895Z,101152.31
2023-03-17T18:45:26.002Z,101152.69
2023-03-17T18:47:53.037Z,101158.41
2023-03-17T18:50:22.049Z,101166.78
2023-03-17T18:52:50.133Z,101163.25
2023-03-17T18:55:17.250Z,101167.75
2023-03-17T18:57:45.025Z,101175.94
2023-03-17T19:00:16.457Z,101173.50
2023-03-17T19:02:43.773Z,101178.75
2023-03-17T19:05:11.945Z,101177.16
2023-03-17T19:07:40.755Z,101191.78
2023-03-17T19:10:09.833Z,101190.09
2023-03-17T19:12:37.438Z,101195.44
2023-03-17T19:15:06.407Z,101187.88
2023-03-17T19:17:33.815Z,101189.34
2023-03-17T19:20:01.238Z,101189.34
2023-03-17T19:22:28.221Z,101193.63
2023-03-17T19:24:55.568Z,101182.53
2023-03-17T19:27:22.464Z,101189.59
2023-03-17T19:29:49.562Z,101189.22
2023-03-17T19:32:17.445Z,101182.28
2023-03-17T19:34:44.735Z,101193.84
2023-03-17T19:37:11.737Z,101194.69
2023-03-17T19:39:38.718Z,101196.78
2023-03-17T19:42:05.922Z,101200.19
2023-03-17T19:44:33.785Z,101194.81
2023-03-17T19:47:05.240Z,101200.47
2023-03-17T19:49:34.158Z,101195.59
2023-03-17T19:52:01.676Z,101192.78
2023-03-17T19:54:28.681Z,101194.75
2023-03-17T19:56:55.786Z,101195.81
2023-03-17T19:59:23.197Z,101194.97
2023-03-17T20:01:50.682Z,101194.00
2023-03-17T20:04:19.646Z,101198.41
2023-03-17T20:06:46.975Z,101206.66
2023-03-17T20:09:14.645Z,101212.31
2023-03-17T20:11:41.674Z,101205.84
2023-03-17T20:14:08.851Z,101205.34
2023-03-17T20:16:36.650Z,101198.78
2023-03-17T20:19:04.139Z,101206.56
2023-03-17T20:21:31.472Z,101214.47
2023-03-17T20:23:58.513Z,101206.56
2023-03-17T20:26:25.750Z,101213.00
2023-03-17T20:28:53.912Z,101210.81
2023-03-17T20:31:20.907Z,101211.31
2023-03-17T20:33:48.179Z,101209.63
2023-03-17T20:36:15.204Z,101206.66
2023-03-17T20:38:43.873Z,101204.97
2023-03-17T20:41:16.135Z,101205.09
2023-03-17T20:43:44.026Z,101204.38
2023-03-17T20:46:17.357Z,101210.56
2023-03-17T20:48:46.886Z,101205.69
2023-03-17T20:51:17.329Z,101194.97
2023-03-17T20:53:46.697Z,101203.41
2023-03-17T20:56:19.983Z,101201.09
2023-03-17T20:58:48.648Z,101192.56
2023-03-17T21:01:18.228Z,101194.88
2023-03-17T21:03:47.625Z,101192.31
2023-03-17T21:06:15.316Z,101196.59
2023-03-17T21:08:42.512Z,101195.44
2023-03-17T21:11:16.621Z,101197.41
2023-03-17T21:13:44.830Z,101198.78
2023-03-17T21:16:24.089Z,101188.19
2023-03-17T21:18:51.694Z,101183.63
2023-03-17T21:21:20.393Z,101179.03
2023-03-17T21:23:47.422Z,101183.03
2023-03-17T21:26:15.041Z,101173.56
2023-03-17T21:28:42.782Z,101167.91
2023-03-17T21:31:12.314Z,101166.00
2023-03-17T21:33:42.554Z,101170.13
2023-03-17T21:36:10.126Z,101170.13
2023-03-17T21:38:37.775Z,101163.56
2023-03-17T21:41:33.337Z,101164.53
2023-03-17T21:44:02.161Z,101156.50
2023-03-17T21:46:31.769Z,101154.28
2023-03-17T21:48:59.483Z,101153.56
2023-03-17T21:51:27.476Z,101159.78
2023-03-17T21:53:54.754Z,101158.44
2023-03-17T21:56:22.451Z,101164.03
2023-03-17T21:58:50.027Z,101159.78
2023-03-17T22:01:23.251Z,101163.53
2023-03-17T22:03:55.054Z,101170.63
2023-03-17T22:06:22.845Z,101178.03
2023-03-17T22:08:52.026Z,101174.97
2023-03-17T22:11:20.154Z,101176.69
2023-03-17T22:13:47.934Z,101176.91
2023-03-17T22:16:16.753Z,101174.16
2023-03-17T22:18:44.793Z,101169.53
2023-03-17T22:21:15.208Z,101170.38
2023-03-17T22:23:42.559Z,101180.44
2023-03-17T22:26:13.461Z,101177.28
2023-03-17T22:28:48.564Z,101173.28
2023-03-17T22:31:24.802Z,101165.97
2023-03-17T22:33:55.417Z,101161.72
2023-03-17T22:36:23.530Z,101162.53
2023-03-17T22:38:53.621Z,101165.09
2023-03-17T22:41:23.732Z,101160.13
2023-03-17T22:43:51.645Z,101158.56
2023-03-17T22:46:19.398Z,101155.38
2023-03-17T22:48:48.862Z,101158.44
2023-03-17T22:51:22.000Z,101150.41
2023-03-17T22:53:52.716Z,101149.91
2023-03-17T22:56:20.398Z,101148.69
2023-03-17T22:58:47.938Z,101146.47
2023-03-17T23:01:17.054Z,101136.72
2023-03-17T23:03:45.341Z,101140.88
2023-03-17T23:06:13.349Z,101133.56
2023-03-17T23:08:42.900Z,101134.31
2023-03-17T23:11:16.513Z,101142.34
2023-03-17T23:13:45.409Z,101133.56
2023-03-17T23:16:12.772Z,101135.75
2023-03-17T23:18:40.023Z,101137.09
2023-03-17T23:21:09.020Z,101129.91
2023-03-17T23:23:38.291Z,101126.75
2023-03-17T23:26:06.593Z,101129.06
2023-03-17T23:28:33.540Z,101122.34
2023-03-17T23:31:02.840Z,101122.63
2023-03-17T23:33:30.377Z,101117.25
2023-03-17T23:35:57.333Z,101123.72
2023-03-17T23:38:24.361Z,101129.09
2023-03-17T23:40:51.848Z,101134.06
2023-03-17T23:43:19.643Z,101117.50
2023-03-17T23:45:46.650Z,101115.53
2023-03-17T23:48:13.776Z,101111.88
2023-03-17T23:50:41.928Z,101115.53
2023-03-17T23:53:09.742Z,101117.25
2023-03-17T23:55:36.769Z,101121.38
2023-03-17T23:58:03.810Z,101133.56
